Time;durP1;ratioP1;P1;durP2;ratioP2;P2;SDS_P1;SDS_P2;PMS_P1;PMS_P2;Temp;Humidity;BMP_temperature;BMP_pressure;BME280_temperature;BME280_humidity;BME280_pressure;Samples;Min_cycle;Max_cycle;Signal;HPM_P1;HPM_P2
2023/05/12 00:01:06;;;;;;;6.80;3.40;;;;;;;11.23;43.04;101122.11;102734;277;98369;-54
2023/05/12 00:03:52;;;;;;;7.20;3.60;;;;;;;11.20;43.03;101123.55;102724;277;119829;-55
2023/05/12 00:06:33;;;;;;;7.50;3.40;;;;;;;11.19;43.10;101119.33;102736;277;104632;-54
2023/05/12 00:09:13;;;;;;;5.80;3.80;;;;;;;11.19;43.25;101128.31;102701;265;114644;-54
2023/05/12 00:11:52;;;;;;;6.10;3.50;;;;;;;11.16;43.07;101126.33;102725;277;94517;-54
2023/05/12 00:14:34;;;;;;;5.90;3.70;;;;;;;11.11;43.16;101129.44;102714;277;96738;-55
2023/05/12 00:17:20;;;;;;;5.90;3.60;;;;;;;11.08;42.99;101130.53;102747;277;120075;-54
2023/05/12 00:20:00;;;;;;;6.10;3.60;;;;;;;11.05;43.11;101131.92;102818;277;103691;-56
2023/05/12 00:22:42;;;;;;;5.80;3.60;;;;;;;11.03;43.12;101128.89;102711;277;112377;-57
2023/05/12 00:25:18;;;;;;;4.30;3.40;;;;;;;11.04;43.28;101132.59;102823;277;93282;-57
2023/05/12 00:27:59;;;;;;;5.60;3.20;;;;;;;11.02;43.17;101127.48;102811;277;97585;-54
2023/05/12 00:30:45;;;;;;;6.10;3.30;;;;;;;10.96;43.34;101130.94;102789;277;118643;-54
2023/05/12 00:33:25;;;;;;;6.40;3.20;;;;;;;10.93;43.34;101131.66;102862;277;105896;-56
2023/05/12 00:36:05;;;;;;;5.40;3.50;;;;;;;10.90;43.38;101128.83;102805;277;114108;-56
2023/05/12 00:38:40;;;;;;;5.70;3.40;;;;;;;10.87;43.41;101135.79;102759;277;94321;-51
2023/05/12 00:41:19;;;;;;;7.30;3.70;;;;;;;10.83;43.39;101133.00;102773;277;98181;-53
2023/05/12 00:43:53;;;;;;;6.30;3.20;;;;;;;10.81;43.35;101137.27;102751;277;119788;-55
2023/05/12 00:46:33;;;;;;;5.70;3.10;;;;;;;10.79;43.61;101137.52;102773;277;105971;-55
2023/05/12 00:49:11;;;;;;;4.60;3.40;;;;;;;10.79;43.70;101138.42;102761;277;115691;-55
2023/05/12 00:51:52;;;;;;;5.20;3.10;;;;;;;10.79;43.48;101140.17;102754;277;91927;-55
2023/05/12 00:54:31;;;;;;;5.50;3.30;;;;;;;10.76;43.61;101143.95;102744;277;97868;-57
2023/05/12 00:57:06;;;;;;;6.70;3.40;;;;;;;10.73;43.64;101142.08;102712;277;118525;-57
2023/05/12 00:59:52;;;;;;;5.50;3.30;;;;;;;10.69;43.61;101144.33;102744;277;106567;-54
2023/05/12 01:02:31;;;;;;;5.90;3.10;;;;;;;10.69;43.73;101148.70;102703;276;113283;-54
2023/05/12 01:05:08;;;;;;;5.60;3.40;;;;;;;10.66;43.68;101147.61;102791;277;94118;-54
2023/05/12 01:07:54;;;;;;;4.60;3.50;;;;;;;10.65;43.81;101153.08;102756;277;95728;-53
2023/05/12 01:10:35;;;;;;;5.80;3.10;;;;;;;10.65;43.85;101153.58;102765;277;118886;-57
2023/05/12 01:13:16;;;;;;;5.10;3.70;;;;;;;10.62;43.94;101155.23;102783;276;104473;-55
2023/05/12 01:15:59;;;;;;;4.60;3.40;;;;;;;10.59;43.94;101153.19;102832;277;114096;-54
2023/05/12 01:18:40;;;;;;;5.20;3.40;;;;;;;10.56;43.90;101154.48;102779;276;93066;-55
2023/05/12 01:21:18;;;;;;;5.20;3.50;;;;;;;10.52;44.06;101156.34;102798;276;96749;-55
2023/05/12 01:24:01;;;;;;;5.20;3.10;;;;;;;10.52;43.97;101154.54;102795;277;118750;-57
2023/05/12 01:26:37;;;;;;;6.00;3.40;;;;;;;10.47;43.91;101154.79;102810;276;105130;-58
2023/05/12 01:29:22;;;;;;;5.20;3.00;;;;;;;10.43;44.17;101157.52;102728;276;111982;-57
2023/05/12 01:32:05;;;;;;;6.00;3.50;;;;;;;10.41;44.29;101159.17;102744;277;93376;-57
2023/05/12 01:34:43;;;;;;;5.80;3.40;;;;;;;10.40;44.36;101163.30;102761;277;97246;-57
2023/05/12 01:37:22;;;;;;;5.10;3.10;;;;;;;10.38;44.23;101165.36;102756;276;118924;-57
2023/05/12 01:39:57;;;;;;;6.90;3.40;;;;;;;10.32;44.39;101164.69;102725;276;105735;-57
2023/05/12 01:42:34;;;;;;;6.00;3.70;;;;;;;10.29;44.43;101162.36;102735;277;114388;-55
2023/05/12 01:45:13;;;;;;;4.80;3.30;;;;;;;10.26;44.44;101164.45;102726;276;94981;-57
2023/05/12 01:47:48;;;;;;;5.30;3.10;;;;;;;10.22;44.50;101164.23;102739;276;95846;-56
2023/05/12 01:50:28;;;;;;;5.70;3.50;;;;;;;10.20;44.81;101167.88;102757;277;118410;-54
2023/05/12 01:53:09;;;;;;;5.50;3.30;;;;;;;10.18;44.69;101168.23;102823;277;106248;-55
2023/05/12 01:55:56;;;;;;;5.50;2.90;;;;;;;10.15;44.80;101169.37;102759;276;114541;-55
2023/05/12 01:58:39;;;;;;;5.90;3.60;;;;;;;10.07;44.80;101167.61;102786;276;94143;-55
2023/05/12 02:01:14;;;;;;;7.50;4.20;;;;;;;10.02;44.76;101170.20;102856;277;98185;-54
2023/05/12 02:03:51;;;;;;;4.50;3.20;;;;;;;9.95;44.88;101172.21;102803;277;119795;-58
2023/05/12 02:06:37;;;;;;;6.90;2.90;;;;;;;9.92;45.08;101170.96;102844;277;105784;-57
2023/05/12 02:09:13;;;;;;;6.00;3.20;;;;;;;9.89;45.25;101171.56;102789;277;114661;-57
2023/05/12 02:11:55;;;;;;;5.60;3.50;;;;;;;9.91;45.34;101169.98;102762;276;94586;-57
2023/05/12 02:14:32;;;;;;;5.40;3.30;;;;;;;9.89;45.48;101164.75;102787;277;98452;-57
2023/05/12 02:17:06;;;;;;;7.50;3.50;;;;;;;9.87;45.60;101167.02;102756;277;119553;-57
2023/05/12 02:19:40;;;;;;;;;;;;;;;9.86;45.58;101169.80;102758;277;105749;-54
2023/05/12 02:22:17;;;;;;;6.30;3.70;;;;;;;9.81;45.55;101172.79;102755;276;114056;-54
2023/05/12 02:24:58;;;;;;;9.30;3.90;;;;;;;9.77;45.71;101175.66;102792;277;94405;-55
2023/05/12 02:27:39;;;;;;;5.60;3.30;;;;;;;9.76;46.04;101179.35;102776;276;97991;-54
2023/05/12 02:30:25;;;;;;;4.20;3.10;;;;;;;9.74;46.06;101180.48;102703;277;120150;-57
2023/05/12 02:33:06;;;;;;;5.30;3.30;;;;;;;9.72;46.22;101179.80;102652;277;104707;-54
2023/05/12 02:35:46;;;;;;;4.60;3.20;;;;;;;9.68;46.14;101183.05;102810;277;114888;-54
2023/05/12 02:38:23;;;;;;;4.70;3.40;;;;;;;9.65;46.29;101186.45;102774;277;91832;-56
2023/05/12 02:41:05;;;;;;;4.70;3.10;;;;;;;9.61;46.37;101184.95;102764;276;97265;-55
2023/05/12 02:43:47;;;;;;;4.00;3.10;;;;;;;9.59;46.44;101192.56;102818;276;121276;-57
2023/05/12 02:46:32;;;;;;;7.60;3.20;;;;;;;9.57;46.33;101189.48;102628;278;104987;-57
2023/05/12 02:49:16;;;;;;;5.80;3.60;;;;;;;9.53;46.53;101187.73;102797;276;113830;-55
2023/05/12 02:51:59;;;;;;;7.00;3.80;;;;;;;9.53;46.56;101191.05;102734;276;94123;-55
2023/05/12 02:54:42;;;;;;;4.30;2.90;;;;;;;9.52;46.75;101191.27;102837;276;97551;-57
2023/05/12 02:57:19;;;;;;;4.60;3.10;;;;;;;9.50;46.68;101196.02;102830;276;118655;-56
2023/05/12 03:00:04;;;;;;;6.30;3.60;;;;;;;9.47;46.78;101200.83;102803;276;104630;-57
2023/05/12 03:02:42;;;;;;;;;;;;;;;9.46;46.78;101201.45;102777;276;113612;-58
2023/05/12 03:05:19;;;;;;;8.30;3.70;;;;;;;9.45;47.03;101200.40;102778;277;91412;-56
2023/05/12 03:08:06;;;;;;;6.50;3.60;;;;;;;9.45;47.08;101197.91;102762;277;95740;-55
2023/05/12 03:10:45;;;;;;;;;;;;;;;9.46;47.01;101201.99;102787;277;119181;-55
2023/05/12 03:13:19;;;;;;;6.50;3.20;;;;;;;9.45;46.95;101202.60;102656;277;103424;-55
2023/05/12 03:16:04;;;;;;;5.00;3.30;;;;;;;9.47;47.15;101199.71;102705;277;114875;-55
2023/05/12 03:18:45;;;;;;;6.10;3.30;;;;;;;9.52;47.28;101200.08;102783;277;94150;-55
2023/05/12 03:21:21;;;;;;;3.50;3.00;;;;;;;9.57;47.04;101200.07;102804;277;97974;-55
2023/05/12 03:24:03;;;;;;;5.80;3.30;;;;;;;9.61;47.13;101199.18;102790;277;119634;-55
2023/05/12 03:26:47;;;;;;;6.30;3.60;;;;;;;9.64;47.01;101199.13;102761;277;105899;-55
2023/05/12 03:29:24;;;;;;;5.70;3.70;;;;;;;9.69;47.11;101199.70;102766;277;113606;-54
2023/05/12 03:32:05;;;;;;;7.10;3.70;;;;;;;9.76;47.15;101202.03;102728;277;94834;-54
2023/05/12 03:34:43;;;;;;;7.20;3.50;;;;;;;9.82;46.91;101204.37;102844;265;97898;-57
2023/05/12 03:37:28;;;;;;;5.70;3.40;;;;;;;10.04;46.80;101202.91;102881;277;119390;-57
2023/05/12 03:40:07;;;;;;;4.10;3.10;;;;;;;10.81;46.68;101203.17;102674;277;106305;-54
2023/05/12 03:42:52;;;;;;;7.90;3.40;;;;;;;11.95;45.80;101196.81;102777;277;114940;-55
2023/05/12 03:45:30;;;;;;;5.80;4.00;;;;;;;13.76;44.42;101199.73;102663;277;93285;-55
2023/05/12 03:48:19;;;;;;;6.90;3.30;;;;;;;14.93;41.95;101194.16;102775;277;98164;-56
2023/05/12 03:50:57;;;;;;;4.80;3.40;;;;;;;16.19;41.03;101195.38;101845;276;1257634;-57
2023/05/12 03:53:43;;;;;;;7.40;3.30;;;;;;;17.18;39.59;101192.61;102725;277;105925;-55
2023/05/12 03:56:23;;;;;;;7.30;3.30;;;;;;;17.95;38.13;101196.08;102755;277;114622;-55
2023/05/12 03:59:01;;;;;;;5.50;3.30;;;;;;;18.75;37.06;101194.08;102750;277;95040;-55
2023/05/12 04:01:41;;;;;;;7.00;3.20;;;;;;;19.43;35.80;101192.89;102715;277;97500;-55
2023/05/12 04:04:28;;;;;;;5.10;3.00;;;;;;;20.10;34.71;101200.66;102714;276;118705;-58
2023/05/12 04:07:21;;;;;;;7.60;3.10;;;;;;;20.55;33.53;101197.20;102597;278;106760;-58
2023/05/12 04:10:01;;;;;;;5.20;3.40;;;;;;;20.16;32.46;101199.20;102680;277;114107;-55
2023/05/12 04:12:40;;;;;;;6.40;3.30;;;;;;;18.54;32.95;101206.93;102722;277;93253;-55
2023/05/12 04:15:20;;;;;;;5.40;3.60;;;;;;;17.13;33.68;101211.11;102710;277;97006;-60
2023/05/12 04:18:10;;;;;;;7.30;3.40;;;;;;;16.09;34.52;101215.40;102733;277;119172;-55
2023/05/12 04:20:51;;;;;;;6.90;3.50;;;;;;;15.39;35.30;101219.77;102722;277;104888;-54
2023/05/12 04:23:29;;;;;;;5.50;3.30;;;;;;;14.89;35.97;101222.73;102744;277;114378;-54
2023/05/12 04:26:06;;;;;;;4.50;3.30;;;;;;;14.42;36.60;101229.69;102549;277;95269;-55
2023/05/12 04:28:47;;;;;;;4.60;2.90;;;;;;;14.08;37.22;101232.73;102758;277;97305;-58
2023/05/12 04:31:27;;;;;;;5.20;3.50;;;;;;;13.85;37.44;101230.83;102767;277;118110;-58
2023/05/12 04:34:07;;;;;;;5.50;3.20;;;;;;;13.69;38.06;101232.89;102746;277;105702;-57
2023/05/12 04:36:47;;;;;;;3.50;2.60;;;;;;;13.61;38.24;101230.64;102720;277;113291;-57
2023/05/12 04:39:27;;;;;;;4.40;2.70;;;;;;;13.66;38.58;101230.24;102722;277;94510;-57
2023/05/12 04:42:07;;;;;;;5.20;3.70;;;;;;;13.71;38.71;101231.27;102747;277;95559;-57
2023/05/12 04:44:45;;;;;;;4.30;3.10;;;;;;;13.87;38.77;101233.66;102781;277;118395;-55
2023/05/12 04:47:23;;;;;;;5.10;2.80;;;;;;;14.70;38.62;101228.48;102732;277;105527;-55
2023/05/12 04:50:04;;;;;;;6.40;3.30;;;;;;;17.00;37.54;101227.59;102774;277;114650;-53
2023/05/12 04:52:45;;;;;;;4.40;3.20;;;;;;;19.33;34.96;101226.20;102739;277;94300;-55
2023/05/12 04:55:26;;;;;;;6.60;3.00;;;;;;;20.93;33.52;101219.34;102729;277;97137;-57
2023/05/12 04:58:05;;;;;;;4.30;3.10;;;;;;;22.53;31.62;101222.09;102728;265;118525;-56
2023/05/12 05:00:43;;;;;;;4.80;3.00;;;;;;;23.80;30.40;101213.10;102741;277;105697;-56
2023/05/12 05:03:24;;;;;;;6.30;3.20;;;;;;;24.84;28.69;101214.92;102774;277;114567;-56
2023/05/12 05:06:06;;;;;;;4.00;2.80;;;;;;;25.34;27.19;101217.85;102703;277;94242;-56
2023/05/12 05:08:49;;;;;;;7.40;2.60;;;;;;;25.90;27.28;101217.13;102805;277;96505;-57
2023/05/12 05:11:28;;;;;;;4.10;2.80;;;;;;;26.71;26.67;101220.73;102780;277;119249;-58
2023/05/12 05:14:04;;;;;;;6.40;3.00;;;;;;;27.39;26.03;101219.17;102788;277;103978;-56
2023/05/12 05:16:39;;;;;;;4.20;3.30;;;;;;;27.56;25.23;101223.10;102542;277;114041;-56
2023/05/12 05:19:15;;;;;;;4.40;2.60;;;;;;;28.24;24.66;101219.73;102750;277;92521;-54
2023/05/12 05:21:52;;;;;;;5.00;3.00;;;;;;;28.82;23.73;101223.54;102744;277;97654;-56
2023/05/12 05:24:33;;;;;;;5.50;2.60;;;;;;;28.84;22.61;101227.14;102489;277;118873;-57
2023/05/12 05:27:16;;;;;;;5.40;2.90;;;;;;;28.82;22.53;101228.88;102710;277;104684;-59
2023/05/12 05:29:56;;;;;;;4.70;3.10;;;;;;;28.78;22.14;101228.52;102729;277;114429;-58
2023/05/12 05:32:39;;;;;;;4.20;2.60;;;;;;;29.04;21.82;101226.30;102748;277;94244;-57
2023/05/12 05:35:30;;;;;;;;;;;;;;;29.28;21.43;101227.55;102526;277;97749;-57
2023/05/12 05:38:10;;;;;;;8.30;3.20;;;;;;;29.38;21.48;101226.16;102723;277;118874;-58
2023/05/12 05:40:46;;;;;;;4.20;3.00;;;;;;;29.82;21.47;101230.92;102758;277;104406;-58
2023/05/12 05:43:21;;;;;;;5.20;3.30;;;;;;;29.86;20.71;101232.15;102732;277;113960;-58
2023/05/12 05:45:57;;;;;;;5.40;3.10;;;;;;;29.47;20.61;101233.38;102755;277;93861;-58
2023/05/12 05:48:35;;;;;;;5.10;3.10;;;;;;;29.79;20.75;101232.34;102724;277;98760;-56
2023/05/12 05:51:17;;;;;;;8.10;3.50;;;;;;;30.50;20.60;101234.44;102575;278;118935;-57
2023/05/12 05:53:57;;;;;;;5.10;2.60;;;;;;;30.80;20.17;101237.71;102726;277;106637;-55
2023/05/12 05:56:34;;;;;;;6.00;3.00;;;;;;;30.69;19.87;101237.21;102705;277;113896;-56
2023/05/12 05:59:15;;;;;;;5.60;3.00;;;;;;;31.21;19.91;101243.70;102719;277;94231;-55
2023/05/12 06:01:54;;;;;;;6.10;3.60;;;;;;;31.26;19.75;101242.65;102753;277;97929;-56
2023/05/12 06:04:29;;;;;;;4.20;3.00;;;;;;;31.66;19.75;101241.70;102742;277;118042;-58
2023/05/12 06:07:06;;;;;;;5.70;2.70;;;;;;;32.08;19.26;101240.30;102748;277;103809;-64
2023/05/12 06:09:42;;;;;;;5.70;3.10;;;;;;;32.17;18.74;101237.31;102509;277;113553;-55
2023/05/12 06:12:23;;;;;;;5.70;2.90;;;;;;;32.21;18.84;101240.46;102725;277;94850;-56
2023/05/12 06:15:01;;;;;;;5.10;3.10;;;;;;;32.45;18.45;101242.55;102748;277;98354;-59
2023/05/12 06:17:44;;;;;;;4.70;2.60;;;;;;;32.21;17.98;101249.27;102715;277;119384;-60
2023/05/12 06:20:22;;;;;;;4.30;2.70;;;;;;;31.63;18.50;101247.33;102769;277;106032;-58
2023/05/12 06:23:04;;;;;;;5.10;2.80;;;;;;;31.40;18.17;101248.73;102525;277;113700;-57
2023/05/12 06:25:41;;;;;;;5.40;2.30;;;;;;;31.88;18.19;101247.19;102690;277;93228;-59
2023/05/12 06:28:17;;;;;;;5.80;2.60;;;;;;;32.32;18.00;101248.10;102734;277;98332;-56
2023/05/12 06:30:59;;;;;;;5.40;2.40;;;;;;;32.29;17.91;101243.26;102730;277;118913;-59
2023/05/12 06:33:37;;;;;;;5.20;2.60;;;;;;;32.69;17.74;101248.11;102746;277;105600;-56
2023/05/12 06:36:26;;;;;;;4.20;2.60;;;;;;;32.42;17.15;101248.10;102787;277;113123;-62
2023/05/12 06:39:05;;;;;;;3.10;2.20;;;;;;;31.89;17.73;101255.33;102758;277;94909;-57
2023/05/12 06:41:41;;;;;;;4.40;2.80;;;;;;;32.28;17.71;101247.35;102778;277;97552;-64
2023/05/12 06:44:21;;;;;;;8.20;3.00;;;;;;;32.38;17.70;101248.91;102600;277;119875;-60
2023/05/12 06:46:59;;;;;;;7.10;2.80;;;;;;;32.22;17.38;101254.80;102724;277;105714;-58
2023/05/12 06:49:38;;;;;;;4.60;2.50;;;;;;;31.96;17.43;101257.97;102706;277;114161;-59
2023/05/12 06:52:22;;;;;;;4.50;2.30;;;;;;;32.09;17.85;101256.49;102699;277;94774;-57
2023/05/12 06:55:04;;;;;;;3.60;2.40;;;;;;;31.98;17.48;101263.64;102594;277;95817;-57
2023/05/12 06:57:43;;;;;;;3.70;2.40;;;;;;;31.45;17.44;101259.73;102725;277;118800;-60
2023/05/12 07:00:43;;;;;;;3.50;2.40;;;;;;;31.14;17.84;101257.50;102730;277;105623;-56
2023/05/12 07:03:24;;;;;;;5.60;2.90;;;;;;;31.72;18.15;101257.21;102714;277;112508;-60
2023/05/12 07:06:07;;;;;;;4.10;2.20;;;;;;;31.89;17.93;101260.80;102488;278;93423;-60
2023/05/12 07:08:44;;;;;;;5.00;2.60;;;;;;;31.91;17.54;101260.43;102709;277;98413;-60
2023/05/12 07:11:23;;;;;;;8.50;3.00;;;;;;;31.63;17.71;101264.78;102748;277;118047;-60
2023/05/12 07:13:59;;;;;;;4.90;2.30;;;;;;;31.05;17.61;101260.38;102757;277;104959;-58
2023/05/12 07:16:36;;;;;;;2.50;2.20;;;;;;;30.96;18.43;101257.60;102756;277;113254;-64
2023/05/12 07:19:14;;;;;;;4.20;2.30;;;;;;;31.72;17.93;101255.70;102776;277;93305;-62
2023/05/12 07:21:57;;;;;;;5.00;2.60;;;;;;;31.46;18.02;101262.90;102777;277;96609;-60
2023/05/12 07:24:37;;;;;;;3.90;2.30;;;;;;;31.53;17.94;101259.42;102819;277;120434;-56
2023/05/12 07:27:15;;;;;;;4.00;2.10;;;;;;;31.51;18.26;101255.94;102808;277;104633;-58
2023/05/12 07:29:53;;;;;;;5.20;2.10;;;;;;;31.46;17.96;101264.34;102765;277;115314;-59
2023/05/12 07:32:33;;;;;;;3.70;1.90;;;;;;;31.16;18.07;101258.06;102737;277;93431;-59
2023/05/12 07:35:17;;;;;;;3.40;2.00;;;;;;;31.30;18.13;101259.17;102780;277;96861;-57
2023/05/12 07:37:58;;;;;;;2.80;1.90;;;;;;;31.29;17.97;101257.77;102773;277;120363;-58
2023/05/12 07:40:37;;;;;;;3.50;2.00;;;;;;;30.98;17.84;101261.05;102695;277;105487;-58
2023/05/12 07:43:25;;;;;;;4.00;1.90;;;;;;;30.86;17.83;101252.63;102760;277;113965;-56
2023/05/12 07:46:09;;;;;;;5.80;2.30;;;;;;;30.25;17.61;101259.90;102738;277;94370;-57
2023/05/12 07:48:52;;;;;;;7.10;2.10;;;;;;;29.74;17.93;101255.95;102742;277;98091;-54
2023/05/12 07:51:28;;;;;;;4.70;2.30;;;;;;;29.83;18.13;101264.25;102709;277;119793;-57
2023/05/12 07:54:19;;;;;;;5.30;2.20;;;;;;;29.53;17.76;101263.77;102766;277;105476;-60
2023/05/12 07:56:54;;;;;;;4.00;1.90;;;;;;;29.52;17.83;101260.95;102689;277;114379;-59
2023/05/12 07:59:30;;;;;;;4.30;2.10;;;;;;;30.17;18.08;101262.77;102694;277;94604;-57
2023/05/12 08:02:10;;;;;;;6.50;2.00;;;;;;;30.11;17.79;101267.09;102733;277;96529;-57
2023/05/12 08:04:48;;;;;;;4.00;2.00;;;;;;;29.76;17.35;101266.03;102730;277;118484;-58
2023/05/12 08:07:22;;;;;;;3.40;1.80;;;;;;;29.03;17.39;101265.48;102737;277;104483;-58
2023/05/12 08:10:00;;;;;;;2.90;1.90;;;;;;;29.28;17.74;101262.55;102742;277;113216;-58
2023/05/12 08:12:43;;;;;;;6.00;2.10;;;;;;;29.50;17.37;101263.52;102703;277;94845;-58
2023/05/12 08:15:22;;;;;;;3.90;2.20;;;;;;;28.93;17.21;101267.13;102522;277;98309;-60
2023/05/12 08:17:56;;;;;;;3.50;2.00;;;;;;;28.35;17.72;101264.25;102764;277;118078;-59
2023/05/12 08:20:32;;;;;;;4.80;1.90;;;;;;;28.17;17.70;101267.40;102760;277;104638;-61
2023/05/12 08:23:15;;;;;;;4.00;2.20;;;;;;;28.46;17.80;101267.25;102706;277;112955;-59
2023/05/12 08:25:55;;;;;;;9.80;2.30;;;;;;;28.25;16.93;101264.70;102700;277;95006;-58
2023/05/12 08:28:34;;;;;;;9.90;2.40;;;;;;;27.32;17.56;101278.69;102794;277;97014;-61
2023/05/12 08:31:13;;;;;;;5.30;2.50;;;;;;;27.12;18.01;101277.08;102751;277;120252;-60
2023/05/12 08:33:53;;;;;;;8.30;2.30;;;;;;;27.03;18.05;101273.70;102744;277;105305;-59
2023/05/12 08:36:32;;;;;;;4.20;2.00;;;;;;;26.68;18.38;101274.29;102733;277;113714;-61
2023/05/12 08:39:15;;;;;;;3.40;2.10;;;;;;;27.23;18.88;101267.87;102716;277;94705;-59
2023/05/12 08:42:05;;;;;;;3.30;1.90;;;;;;;27.35;18.33;101264.59;102409;277;97496;-57
2023/05/12 08:44:41;;;;;;;3.50;2.00;;;;;;;27.35;18.27;101264.86;102717;277;119632;-57
2023/05/12 08:47:24;;;;;;;3.60;2.00;;;;;;;27.57;18.16;101255.64;102728;277;105447;-61
2023/05/12 08:50:04;;;;;;;7.30;2.50;;;;;;;27.46;17.90;101269.14;102746;277;113169;-65
2023/05/12 08:52:39;;;;;;;4.30;2.40;;;;;;;27.23;18.06;101259.55;102753;277;93861;-58
2023/05/12 08:55:18;;;;;;;3.40;2.00;;;;;;;27.40;17.67;101264.80;102823;277;97149;-59
2023/05/12 08:58:05;;;;;;;3.60;2.30;;;;;;;27.33;17.90;101254.60;102728;274;120432;-58
2023/05/12 09:00:43;;;;;;;4.10;2.20;;;;;;;27.31;18.07;101260.59;102786;277;104362;-57
2023/05/12 09:03:21;;;;;;;4.90;2.20;;;;;;;27.01;17.59;101262.47;102818;277;114602;-59
2023/05/12 09:05:59;;;;;;;7.60;2.60;;;;;;;26.41;18.44;101260.43;102565;277;93982;-60
2023/05/12 09:08:39;;;;;;;3.30;1.90;;;;;;;25.73;18.54;101255.90;102798;277;96226;-58
2023/05/12 09:11:16;;;;;;;5.60;2.40;;;;;;;24.98;19.20;101260.00;102791;277;120254;-59
2023/05/12 09:14:01;;;;;;;4.90;2.30;;;;;;;24.53;19.65;101258.05;102752;277;105448;-64
2023/05/12 09:16:45;;;;;;;10.60;2.30;;;;;;;24.39;20.00;101255.80;102712;277;114137;-66
2023/05/12 09:19:33;;;;;;;4.80;2.10;;;;;;;24.14;20.10;101257.66;102805;277;94711;-65
2023/05/12 09:22:13;;;;;;;6.20;2.10;;;;;;;23.79;20.12;101262.00;102745;277;96849;-65
2023/05/12 09:24:57;;;;;;;4.30;2.10;;;;;;;23.37;20.11;101265.89;102754;277;119327;-66
2023/05/12 09:27:45;;;;;;;2.60;1.90;;;;;;;23.04;20.32;101269.36;102782;277;105711;-63
2023/05/12 09:30:31;;;;;;;5.80;2.10;;;;;;;22.69;20.67;101271.66;102704;277;115990;-64
2023/05/12 09:33:16;;;;;;;4.30;2.10;;;;;;;22.43;21.20;101268.39;102706;277;95019;-65
2023/05/12 09:36:00;;;;;;;5.90;2.20;;;;;;;22.46;21.18;101262.27;102533;277;96512;-66
2023/05/12 09:38:42;;;;;;;4.40;1.90;;;;;;;22.33;21.03;101258.62;102733;277;118772;-66
2023/05/12 09:41:32;;;;;;;4.20;2.00;;;;;;;22.15;21.31;101260.41;102762;277;105587;-58
2023/05/12 09:44:08;;;;;;;4.10;2.30;;;;;;;22.31;21.52;101259.29;102763;277;113715;-59
2023/05/12 09:46:46;;;;;;;3.60;2.40;;;;;;;22.46;21.57;101256.66;102743;277;94146;-59
2023/05/12 09:49:25;;;;;;;4.60;2.20;;;;;;;22.45;21.57;101258.81;102781;277;96826;-56
2023/05/12 09:52:04;;;;;;;2.60;2.00;;;;;;;22.42;21.65;101256.20;102764;277;119528;-56
2023/05/12 09:54:43;;;;;;;3.80;2.10;;;;;;;22.33;21.81;101255.10;102758;277;105820;-59
2023/05/12 09:57:28;;;;;;;3.20;1.80;;;;;;;22.23;21.80;101247.30;102762;277;114155;-56
2023/05/12 10:00:12;;;;;;;4.10;2.20;;;;;;;22.31;22.06;101254.73;102721;277;94507;-58
2023/05/12 10:02:57;;;;;;;6.20;2.20;;;;;;;22.17;22.13;101247.57;102751;277;96913;-58
2023/05/12 10:05:45;;;;;;;5.90;2.00;;;;;;;22.34;22.15;101248.55;102729;277;119756;-56
2023/05/12 10:08:33;;;;;;;5.70;2.20;;;;;;;22.14;22.07;101245.52;102727;277;104282;-56
2023/05/12 10:11:12;;;;;;;3.70;2.10;;;;;;;21.87;22.22;101245.05;102699;277;113731;-56
2023/05/12 10:13:59;;;;;;;3.90;2.50;;;;;;;21.97;22.27;101254.86;102705;265;94890;-59
2023/05/12 10:16:41;;;;;;;5.20;2.20;;;;;;;21.96;22.12;101247.30;102717;277;98111;-59
2023/05/12 10:19:27;;;;;;;5.30;2.30;;;;;;;22.01;22.35;101253.13;102734;277;120116;-58
2023/05/12 10:22:12;;;;;;;6.80;2.00;;;;;;;21.99;22.30;101249.41;102726;277;103660;-57
2023/05/12 10:24:50;;;;;;;2.90;2.00;;;;;;;21.82;21.89;101250.48;102740;277;115144;-59
2023/05/12 10:27:33;;;;;;;2.90;1.90;;;;;;;21.68;22.05;101248.52;102700;277;93762;-59
2023/05/12 10:30:13;;;;;;;5.70;2.50;;;;;;;21.65;22.20;101243.68;102780;277;96489;-60
2023/05/12 10:32:56;;;;;;;3.40;2.10;;;;;;;21.64;22.52;101233.05;102819;277;119429;-60
2023/05/12 10:35:39;;;;;;;4.00;2.20;;;;;;;21.75;22.78;101235.42;102765;277;106613;-56
2023/05/12 10:38:20;;;;;;;5.50;2.30;;;;;;;21.71;22.91;101240.08;102744;277;112265;-56
2023/05/12 10:41:15;;;;;;;9.10;2.50;;;;;;;21.68;23.04;101236.11;102728;277;95147;-56
2023/05/12 10:43:52;;;;;;;3.20;2.20;;;;;;;21.58;22.82;101228.67;102738;277;97594;-55
2023/05/12 10:46:39;;;;;;;6.10;2.30;;;;;;;21.56;22.87;101224.73;102742;277;118277;-55
2023/05/12 10:49:19;;;;;;;5.20;2.30;;;;;;;21.44;22.70;101229.91;102681;277;105072;-56
2023/05/12 10:51:59;;;;;;;4.00;2.10;;;;;;;21.51;23.19;101238.52;102737;277;114968;-54
2023/05/12 10:54:44;;;;;;;5.20;2.30;;;;;;;21.52;23.08;101228.60;102719;277;94780;-59
2023/05/12 10:57:25;;;;;;;3.50;1.80;;;;;;;21.59;22.98;101211.55;102695;277;97353;-59
2023/05/12 11:00:06;;;;;;;3.10;1.90;;;;;;;21.63;23.35;101219.60;102518;277;120536;-56
2023/05/12 11:02:58;;;;;;;5.20;2.40;;;;;;;21.64;23.12;101221.10;102719;265;105511;-56
2023/05/12 11:05:40;;;;;;;5.80;2.30;;;;;;;21.50;23.25;101224.80;102743;277;113550;-56
2023/05/12 11:08:19;;;;;;;5.00;2.10;;;;;;;21.44;23.31;101229.19;102705;277;93660;-57
2023/05/12 11:10:54;;;;;;;2.50;2.00;;;;;;;21.23;23.33;101228.19;102769;277;95494;-56
2023/05/12 11:13:35;;;;;;;3.90;2.20;;;;;;;21.13;23.52;101221.98;102783;277;117929;-60
2023/05/12 11:16:20;;;;;;;5.80;2.80;;;;;;;21.09;23.55;101225.38;102541;278;106117;-59
2023/05/12 11:19:04;;;;;;;3.40;1.80;;;;;;;21.18;23.78;101217.98;102756;277;114833;-59
2023/05/12 11:21:48;;;;;;;4.10;2.20;;;;;;;21.33;23.73;101223.54;102725;277;94401;-58
2023/05/12 11:24:25;;;;;;;2.80;2.10;;;;;;;21.30;23.40;101214.73;102750;277;98406;-59
2023/05/12 11:27:03;;;;;;;3.70;2.30;;;;;;;21.27;23.57;101226.60;102739;277;119530;-56
2023/05/12 11:29:59;;;;;;;4.80;2.40;;;;;;;21.23;23.44;101224.68;102759;277;105282;-59
2023/05/12 11:32:35;;;;;;;4.40;2.00;;;;;;;21.00;23.45;101226.80;102700;277;114885;-57
2023/05/12 11:35:18;;;;;;;5.30;2.20;;;;;;;21.06;23.74;101230.64;102722;277;93824;-58
2023/05/12 11:37:58;;;;;;;4.70;2.10;;;;;;;21.10;23.32;101226.30;102750;277;96802;-58
2023/05/12 11:40:44;;;;;;;3.80;2.40;;;;;;;21.12;23.38;101221.23;102775;277;118353;-59
2023/05/12 11:43:30;;;;;;;5.10;2.20;;;;;;;21.12;23.05;101217.77;102759;277;105551;-59
2023/05/12 11:46:23;;;;;;;2.70;2.10;;;;;;;21.22;23.29;101209.77;102777;277;114365;-58
2023/05/12 11:49:17;;;;;;;5.40;2.20;;;;;;;21.39;23.66;101208.06;102760;277;94598;-59
2023/05/12 11:51:56;;;;;;;5.30;2.40;;;;;;;21.51;23.36;101215.98;102193;277;672193;-60
2023/05/12 11:54:36;;;;;;;11.20;3.10;;;;;;;21.50;23.27;101207.98;102668;277;118618;-56
2023/05/12 11:57:24;;;;;;;5.70;2.10;;;;;;;21.64;23.80;101203.84;102740;277;104056;-57
2023/05/12 12:00:08;;;;;;;5.50;2.50;;;;;;;21.66;23.42;101213.61;102676;277;114212;-57
2023/05/12 12:02:45;;;;;;;5.30;2.20;;;;;;;21.30;23.21;101218.09;102745;277;93516;-58
2023/05/12 12:05:23;;;;;;;4.30;2.20;;;;;;;21.05;23.29;101214.33;102770;277;95826;-55
2023/05/12 12:08:11;;;;;;;3.50;2.30;;;;;;;20.96;23.38;101206.58;102733;277;118521;-56
2023/05/12 12:10:49;;;;;;;4.40;1.80;;;;;;;20.71;23.68;101214.69;102742;277;105232;-56
2023/05/12 12:13:30;;;;;;;5.90;2.20;;;;;;;20.72;23.81;101212.39;102777;277;113810;-59
2023/05/12 12:16:09;;;;;;;5.20;2.10;;;;;;;20.72;23.81;101213.40;102760;277;93469;-60
2023/05/12 12:18:46;;;;;;;7.80;2.20;;;;;;;20.70;23.77;101203.80;102813;277;97208;-56
2023/05/12 12:21:26;;;;;;;4.30;2.40;;;;;;;20.79;23.98;101204.02;102767;277;119685;-56
2023/05/12 12:24:09;;;;;;;2.40;1.90;;;;;;;20.85;24.24;101204.23;102749;277;105207;-57